createdAt,value
2022-08-25T00:00:12.858Z,98809.69
2022-08-25T00:02:55.174Z,98818.94
2022-08-25T00:05:29.484Z,98811.81
2022-08-25T00:08:03.161Z,98797.53
2022-08-25T00:10:33.301Z,98799.63
2022-08-25T00:13:11.611Z,98807.59
2022-08-25T00:15:41.929Z,98797.28
2022-08-25T00:18:19.755Z,98803.88
2022-08-25T00:20:49.265Z,98801.22
2022-08-25T00:23:22.226Z,98804.66
2022-08-25T00:26:06.272Z,98802.81
2022-08-25T00:28:38.329Z,98795.16
2022-08-25T00:31:05.645Z,98796.22
2022-08-25T00:33:33.648Z,98793.28
2022-08-25T00:36:00.476Z,98795.66
2022-08-25T00:38:31.586Z,98795.66
2022-08-25T00:41:07.186Z,98794.09
2022-08-25T00:44:02.289Z,98792.50
2022-08-25T00:46:33.176Z,98797.25
2022-08-25T00:49:26.989Z,98795.91
2022-08-25T00:52:04.293Z,98796.38
2022-08-25T00:55:04.292Z,98792.97
2022-08-25T00:57:40.317Z,98792.41
2022-08-25T01:00:17.234Z,98796.66
2022-08-25T01:02:47.119Z,98803.53
2022-08-25T01:05:15.326Z,98793.75
2022-08-25T01:07:45.363Z,98796.38
2022-08-25T01:10:14.197Z,98798.75
2022-08-25T01:12:52.910Z,98792.13
2022-08-25T01:15:25.487Z,98787.63
2022-08-25T01:18:07.227Z,98784.47
2022-08-25T01:20:35.009Z,98778.66
2022-08-25T01:23:05.106Z,98784.16
2022-08-25T01:25:56.848Z,98783.09
2022-08-25T01:28:23.878Z,98784.66
2022-08-25T01:30:53.606Z,98789.19
2022-08-25T01:33:28.836Z,98791.03
2022-08-25T01:35:55.924Z,98787.00
2022-08-25T01:38:23.931Z,98780.34
2022-08-25T01:40:59.315Z,98787.25
2022-08-25T01:43:37.172Z,98781.97
2022-08-25T01:46:09.223Z,98780.63
2022-08-25T01:48:36.941Z,98770.34
2022-08-25T01:51:06.629Z,98771.94
2022-08-25T01:53:33.764Z,98767.69
2022-08-25T01:56:09.805Z,98771.16
2022-08-25T01:58:42.953Z,98774.88
2022-08-25T02:01:16.088Z,98773.31
2022-08-25T02:03:46.963Z,98783.03
2022-08-25T02:06:17.896Z,98778.78
2022-08-25T02:08:55.933Z,98782.47
2022-08-25T02:11:24.390Z,98781.34
2022-08-25T02:13:54.577Z,98782.63
2022-08-25T02:16:26.408Z,98783.13
2022-08-25T02:19:00.887Z,98783.59
2022-08-25T02:21:27.694Z,98787.00
2022-08-25T02:24:08.370Z,98776.19
2022-08-25T02:26:37.809Z,98782.19
2022-08-25T02:29:07.477Z,98785.63
2022-08-25T02:31:38.064Z,98779.06
2022-08-25T02:34:06.955Z,98773.78
2022-08-25T02:36:34.206Z,98771.47
2022-08-25T02:39:01.267Z,98774.09
2022-08-25T02:41:31.200Z,98766.53
2022-08-25T02:43:59.139Z,98755.41
2022-08-25T02:46:26.129Z,98756.72
2022-08-25T02:48:53.403Z,98761.47
2022-08-25T02:51:28.552Z,98766.41
2022-08-25T02:53:56.433Z,98758.22
2022-08-25T02:56:25.896Z,98755.81
2022-08-25T02:58:55.689Z,98755.28
2022-08-25T03:01:28.835Z,98757.63
2022-08-25T03:03:56.493Z,98753.44
2022-08-25T03:06:27.367Z,98752.41
2022-08-25T03:08:57.255Z,98759.50
2022-08-25T03:11:25.709Z,98750.00
2022-08-25T03:13:52.491Z,98753.44
2022-08-25T03:16:19.710Z,98756.84
2022-08-25T03:18:50.489Z,98747.09
2022-08-25T03:21:22.984Z,98752.09
2022-08-25T03:23:52.769Z,98752.63
2022-08-25T03:26:38.243Z,98750.50
2022-08-25T03:29:09.074Z,98750.50
2022-08-25T03:31:45.035Z,98751.28
2022-08-25T03:34:23.122Z,98756.53
2022-08-25T03:36:56.129Z,98753.84
2022-08-25T03:39:27.787Z,98760.69
2022-08-25T03:41:55.102Z,98755.81
2022-08-25T03:45:15.377Z,98763.66
2022-08-25T03:47:42.994Z,98754.06
2022-08-25T03:50:13.831Z,98760.09
2022-08-25T03:52:47.227Z,98749.84
2022-08-25T03:55:14.862Z,98759.09
2022-08-25T03:57:41.903Z,98748.28
2022-08-25T04:00:12.641Z,98756.69
2022-08-25T04:02:41.119Z,98750.91
2022-08-25T04:05:09.428Z,98746.16
2022-08-25T04:07:36.516Z,98750.41
2022-08-25T04:10:05.947Z,98740.63
2022-08-25T04:12:32.865Z,98738.72
2022-08-25T04:14:59.738Z,98740.84
2022-08-25T04:17:26.390Z,98731.88
2022-08-25T04:19:53.086Z,98735.81
2022-08-25T04:22:22.869Z,98739.03
2022-08-25T04:24:49.798Z,98739.59
2022-08-25T04:27:16.887Z,98732.72
2022-08-25T04:29:46.129Z,98738.44
2022-08-25T04:32:14.079Z,98736.09
2022-08-25T04:34:43.703Z,98749.47
2022-08-25T04:37:11.971Z,98741.28
2022-08-25T04:39:39.122Z,98740.19
2022-08-25T04:42:11.766Z,98745.75
2022-08-25T04:45:09.609Z,98748.00
2022-08-25T04:47:43.111Z,98754.38
2022-08-25T04:50:09.809Z,98749.34
2022-08-25T04:52:42.994Z,98745.69
2022-08-25T04:55:15.793Z,98752.31
2022-08-25T04:57:43.645Z,98751.19
2022-08-25T05:00:17.454Z,98762.22
2022-08-25T05:02:47.035Z,98758.38
2022-08-25T05:05:16.961Z,98766.06
2022-08-25T05:07:43.848Z,98764.53
2022-08-25T05:10:10.634Z,98768.50
2022-08-25T05:12:37.155Z,98757.28
2022-08-25T05:15:27.368Z,98752.13
2022-08-25T05:17:56.119Z,98750.09
2022-08-25T05:20:24.126Z,98750.72
2022-08-25T05:22:54.133Z,98748.44
2022-08-25T05:25:22.240Z,98737.69
2022-08-25T05:27:49.173Z,98741.69
2022-08-25T05:30:22.281Z,98745.72
2022-08-25T05:32:49.260Z,98736.25
2022-08-25T05:35:19.040Z,98738.38
2022-08-25T05:37:46.323Z,98740.78
2022-08-25T05:40:15.816Z,98738.41
2022-08-25T05:42:42.904Z,98743.44
2022-08-25T05:45:10.095Z,98738.66
2022-08-25T05:47:45.644Z,98741.09
2022-08-25T05:50:12.499Z,98743.75
2022-08-25T05:52:41.851Z,98738.19
2022-08-25T05:55:09.117Z,98734.25
2022-08-25T05:57:38.520Z,98738.72
2022-08-25T06:00:10.444Z,98741.13
2022-08-25T06:02:41.837Z,98737.16
2022-08-25T06:05:10.547Z,98740.38
2022-08-25T06:07:37.598Z,98734.59
2022-08-25T06:10:13.752Z,98743.00
2022-08-25T06:12:44.594Z,98731.69
2022-08-25T06:15:13.872Z,98736.16
2022-08-25T06:17:44.541Z,98730.38
2022-08-25T06:20:17.521Z,98740.16
2022-08-25T06:22:50.060Z,98739.13
2022-08-25T06:25:22.248Z,98740.41
2022-08-25T06:27:53.638Z,98747.06
2022-08-25T06:30:28.850Z,98743.13
2022-08-25T06:33:00.072Z,98746.03
2022-08-25T06:35:27.923Z,98739.69
2022-08-25T06:37:54.879Z,98732.06
2022-08-25T06:40:24.878Z,98737.06
2022-08-25T06:42:51.741Z,98733.09
2022-08-25T06:45:18.821Z,98734.41
2022-08-25T06:47:50.431Z,98733.31
2022-08-25T06:50:20.171Z,98732.75
2022-08-25T06:52:50.061Z,98723.25
2022-08-25T06:55:16.818Z,98721.84
2022-08-25T06:57:43.981Z,98727.53
2022-08-25T07:00:12.386Z,98722.16
2022-08-25T07:02:42.646Z,98716.72
2022-08-25T07:05:13.210Z,98719.00
2022-08-25T07:07:43.866Z,98713.00
2022-08-25T07:10:11.641Z,98706.03
2022-08-25T07:12:38.826Z,98713.53
2022-08-25T07:15:23.986Z,98708.78
2022-08-25T07:17:57.807Z,98701.25
2022-08-25T07:20:33.965Z,98698.97
2022-08-25T07:23:01.702Z,98696.59
2022-08-25T07:25:31.293Z,98701.56
2022-08-25T07:28:01.350Z,98693.53
2022-08-25T07:30:33.539Z,98693.13
2022-08-25T07:33:21.612Z,98694.41
2022-08-25T07:35:54.804Z,98699.34
2022-08-25T07:38:24.028Z,98704.13
2022-08-25T07:41:03.481Z,98697.53
2022-08-25T07:43:33.715Z,98693.78
2022-08-25T07:46:10.897Z,98700.59
2022-08-25T07:48:38.065Z,98698.41
2022-08-25T07:51:18.238Z,98699.28
2022-08-25T07:53:47.522Z,98705.97
2022-08-25T07:56:30.353Z,98698.72
2022-08-25T07:59:12.614Z,98706.88
2022-08-25T08:01:42.982Z,98710.94
2022-08-25T08:04:09.638Z,98710.63
2022-08-25T08:06:36.272Z,98702.41
2022-08-25T08:09:03.396Z,98704.75
2022-08-25T08:11:37.218Z,98703.50
2022-08-25T08:14:03.957Z,98696.59
2022-08-25T08:16:31.392Z,98699.31
2022-08-25T08:18:59.978Z,98693.09
2022-08-25T08:21:48.568Z,98695.69
2022-08-25T08:24:40.665Z,98685.91
2022-08-25T08:27:10.142Z,98686.78
2022-08-25T08:32:53.310Z,98678.59
2022-08-25T08:35:22.524Z,98681.59
2022-08-25T08:37:49.087Z,98682.06
2022-08-25T08:40:21.538Z,98681.25
2022-08-25T08:43:18.016Z,98689.09
2022-08-25T08:45:50.825Z,98685.91
2022-08-25T08:48:44.513Z,98680.66
2022-08-25T08:51:32.954Z,98672.13
2022-08-25T08:54:18.759Z,98661.53
2022-08-25T08:56:50.610Z,98662.72
2022-08-25T08:59:30.561Z,98656.41
2022-08-25T09:05:02.188Z,98660.25
2022-08-25T09:07:42.324Z,98669.03
2022-08-25T09:10:14.885Z,98670.81
2022-08-25T09:12:48.887Z,98669.16
2022-08-25T09:15:55.290Z,98663.91
2022-08-25T09:18:28.519Z,98664.44
2022-08-25T09:21:08.021Z,98660.56
2022-08-25T09:23:52.972Z,98663.72
2022-08-25T09:26:36.108Z,98661.00
2022-08-25T09:29:18.369Z,98657.75
2022-08-25T09:31:58.141Z,98648.00
2022-08-25T09:34:31.228Z,98657.88
2022-08-25T09:36:58.606Z,98646.16
2022-08-25T09:39:25.212Z,98647.81
2022-08-25T09:41:56.326Z,98654.56
2022-08-25T09:44:32.962Z,98647.13
2022-08-25T09:47:09.118Z,98644.38
2022-08-25T09:49:44.492Z,98644.94
2022-08-25T09:52:21.137Z,98643.00
2022-08-25T09:54:50.407Z,98640.13
2022-08-25T09:57:37.565Z,98632.63
2022-08-25T10:00:15.412Z,98624.31
2022-08-25T10:02:44.414Z,98624.66
2022-08-25T10:05:24.142Z,98617.56
2022-08-25T10:07:57.381Z,98611.94
2022-08-25T10:10:34.961Z,98606.31
2022-08-25T10:13:06.156Z,98607.25
2022-08-25T10:15:36.287Z,98597.59
2022-08-25T10:18:26.781Z,98597.22
2022-08-25T10:21:10.841Z,98595.59
2022-08-25T10:23:46.015Z,98592.72
2022-08-25T10:26:42.539Z,98589.31
2022-08-25T10:29:43.982Z,98588.59
2022-08-25T10:32:27.238Z,98584.72
2022-08-25T10:34:56.460Z,98582.72
2022-08-25T10:37:55.187Z,98575.13
2022-08-25T10:40:32.004Z,98567.00
2022-08-25T10:43:08.436Z,98565.31
2022-08-25T10:45:46.066Z,98562.31
2022-08-25T10:48:13.251Z,98559.84
2022-08-25T10:50:54.701Z,98548.06
2022-08-25T10:53:33.993Z,98548.22
2022-08-25T10:56:11.607Z,98550.88
2022-08-25T10:58:51.042Z,98552.94
2022-08-25T11:01:28.227Z,98547.47
2022-08-25T11:04:07.863Z,98537.47
2022-08-25T11:06:43.880Z,98527.38
2022-08-25T11:09:15.789Z,98543.13
2022-08-25T11:11:52.446Z,98539.63
2022-08-25T11:14:29.418Z,98532.59
2022-08-25T11:17:01.932Z,98541.00
2022-08-25T11:19:36.033Z,98534.88
2022-08-25T11:22:24.793Z,98532.53
2022-08-25T11:25:21.679Z,98533.66
2022-08-25T11:28:13.323Z,98525.50
2022-08-25T11:30:40.465Z,98525.22
2022-08-25T11:33:12.106Z,98524.03
2022-08-25T11:36:05.164Z,98524.19
2022-08-25T11:38:50.258Z,98521.00
2022-08-25T11:41:42.325Z,98530.38
2022-08-25T11:44:33.569Z,98526.78
2022-08-25T11:47:00.660Z,98526.38
2022-08-25T11:49:52.876Z,98522.75
2022-08-25T11:52:44.118Z,98530.16
2022-08-25T11:55:17.488Z,98523.78
2022-08-25T11:57:53.557Z,98518.16
2022-08-25T12:00:43.429Z,98517.16
2022-08-25T12:03:31.899Z,98513.81
2022-08-25T12:06:25.345Z,98519.75
2022-08-25T12:09:01.004Z,98521.66
2022-08-25T12:11:42.257Z,98524.78
2022-08-25T12:14:18.499Z,98517.06
2022-08-25T12:17:06.936Z,98523.09
2022-08-25T12:19:41.162Z,98521.41
2022-08-25T12:22:08.864Z,98516.94
2022-08-25T12:24:47.743Z,98516.78
2022-08-25T12:27:43.740Z,98509.34
2022-08-25T12:30:16.168Z,98508.53
2022-08-25T12:33:11.087Z,98505.56
2022-08-25T12:35:52.723Z,98498.44
2022-08-25T12:38:33.605Z,98497.88
2022-08-25T12:41:12.090Z,98490.66
2022-08-25T12:43:42.391Z,98491.31
2022-08-25T12:46:21.165Z,98486.97
2022-08-25T12:49:00.762Z,98489.78
2022-08-25T12:51:38.200Z,98481.66
2022-08-25T12:54:23.367Z,98481.13
2022-08-25T12:56:55.114Z,98480.28
2022-08-25T12:59:23.475Z,98482.31
2022-08-25T13:02:25.649Z,98484.13
2022-08-25T13:05:10.335Z,98475.53
2022-08-25T13:07:51.598Z,98482.53
2022-08-25T13:10:48.692Z,98486.94
2022-08-25T13:13:31.328Z,98476.75
2022-08-25T13:16:01.536Z,98481.69
2022-08-25T13:18:34.857Z,98484.19
2022-08-25T13:21:24.651Z,98471.31
2022-08-25T13:23:54.103Z,98473.44
2022-08-25T13:26:31.762Z,98465.50
2022-08-25T13:29:24.362Z,98463.78
2022-08-25T13:31:53.944Z,98457.69
2022-08-25T13:34:24.033Z,98461.22
2022-08-25T13:37:26.079Z,98456.50
2022-08-25T13:40:17.818Z,98451.19
2022-08-25T13:42:54.485Z,98449.34
2022-08-25T13:45:25.600Z,98452.44
2022-08-25T13:47:55.864Z,98450.59
2022-08-25T13:50:26.410Z,98449.63
2022-08-25T13:53:02.711Z,98440.84
2022-08-25T13:55:51.541Z,98440.66
2022-08-25T13:58:38.668Z,98437.53
2022-08-25T14:01:35.679Z,98421.59
2022-08-25T14:04:27.264Z,98429.41
2022-08-25T14:07:26.394Z,98424.25
2022-08-25T14:09:57.445Z,98408.53
2022-08-25T14:12:45.169Z,98420.97
2022-08-25T14:15:17.891Z,98421.00
2022-08-25T14:17:50.735Z,98420.38
2022-08-25T14:20:23.619Z,98423.75
2022-08-25T14:22:56.546Z,98425.81
2022-08-25T14:25:25.360Z,98419.13
2022-08-25T14:28:16.550Z,98409.22
2022-08-25T14:30:56.351Z,98401.53
2022-08-25T14:33:34.489Z,98397.19
2022-08-25T14:36:04.912Z,98401.41
2022-08-25T14:38:32.745Z,98394.31
2022-08-25T14:40:59.651Z,98393.75
2022-08-25T14:43:31.787Z,98398.66
2022-08-25T14:46:06.318Z,98393.16
2022-08-25T14:48:40.649Z,98378.28
2022-08-25T14:51:12.073Z,98388.25
2022-08-25T14:53:38.708Z,98373.16
2022-08-25T14:56:09.263Z,98384.59
2022-08-25T14:58:50.919Z,98379.81
2022-08-25T15:01:28.393Z,98383.00
2022-08-25T15:04:02.249Z,98372.00
2022-08-25T15:06:29.456Z,98367.50
2022-08-25T15:09:08.237Z,98366.66
2022-08-25T15:11:36.196Z,98365.31
2022-08-25T15:14:06.111Z,98364.56
2022-08-25T15:16:44.295Z,98359.88
2022-08-25T15:19:15.768Z,98358.16
2022-08-25T15:21:44.902Z,98364.53
2022-08-25T15:24:12.121Z,98364.13
2022-08-25T15:29:22.261Z,98363.19
2022-08-25T15:31:49.882Z,98360.28
2022-08-25T15:34:17.474Z,98363.75
2022-08-25T15:36:45.597Z,98369.75
2022-08-25T15:39:12.870Z,98371.69
2022-08-25T15:41:39.680Z,98360.53
2022-08-25T15:44:11.296Z,98363.13
2022-08-25T15:46:41.432Z,98364.44
2022-08-25T15:49:08.122Z,98358.50
2022-08-25T15:51:35.144Z,98358.63
2022-08-25T15:54:02.029Z,98357.97
2022-08-25T15:56:29.174Z,98347.03
2022-08-25T15:58:55.881Z,98353.06
2022-08-25T16:01:31.950Z,98355.91
2022-08-25T16:04:01.834Z,98350.50
2022-08-25T16:06:32.285Z,98348.84
2022-08-25T16:09:05.732Z,98340.56
2022-08-25T16:11:38.477Z,98336.03
2022-08-25T16:14:16.252Z,98339.66
2022-08-25T16:16:58.056Z,98336.16
2022-08-25T16:19:31.363Z,98340.88
2022-08-25T16:21:59.884Z,98347.81
2022-08-25T16:24:30.359Z,98337.25
2022-08-25T16:27:14.955Z,98333.91
2022-08-25T16:29:45.768Z,98340.47
2022-08-25T16:32:15.457Z,98333.56
2022-08-25T16:34:54.495Z,98336.09
2022-08-25T16:37:24.102Z,98332.34
2022-08-25T16:39:57.304Z,98327.56
2022-08-25T16:42:24.303Z,98334.09
2022-08-25T16:44:53.943Z,98331.91
2022-08-25T16:47:25.119Z,98332.09
2022-08-25T16:49:53.667Z,98326.00
2022-08-25T16:52:39.395Z,98319.53
2022-08-25T16:55:13.804Z,98317.75
2022-08-25T16:57:43.599Z,98326.94
2022-08-25T17:00:17.223Z,98321.31
2022-08-25T17:02:47.834Z,98325.31
2022-08-25T17:05:15.275Z,98320.13
2022-08-25T17:07:41.889Z,98320.13
2022-08-25T17:10:12.837Z,98326.19
2022-08-25T17:12:40.454Z,98318.91
2022-08-25T17:15:10.692Z,98316.50
2022-08-25T17:17:37.455Z,98317.41
2022-08-25T17:20:04.977Z,98320.06
2022-08-25T17:22:33.901Z,98314.72
2022-08-25T17:25:02.672Z,98315.41
2022-08-25T17:27:33.346Z,98310.34
2022-08-25T17:29:59.859Z,98310.59
2022-08-25T17:32:55.787Z,98309.66
2022-08-25T17:35:25.062Z,98309.47
2022-08-25T17:37:54.514Z,98310.63
2022-08-25T17:40:24.951Z,98316.47
2022-08-25T17:43:18.286Z,98304.25
2022-08-25T17:45:53.498Z,98309.94
2022-08-25T17:48:20.618Z,98311.84
2022-08-25T17:50:47.674Z,98314.69
2022-08-25T17:53:15.074Z,98318.13
2022-08-25T17:55:43.851Z,98305.63
2022-08-25T17:58:16.347Z,98313.59
2022-08-25T18:00:54.295Z,98312.22
2022-08-25T18:03:21.030Z,98306.44
2022-08-25T18:05:47.864Z,98311.91
2022-08-25T18:08:16.090Z,98313.25
2022-08-25T18:10:47.079Z,98313.28
2022-08-25T18:13:13.839Z,98316.84
2022-08-25T18:15:42.333Z,98313.16
2022-08-25T18:18:09.751Z,98320.59
2022-08-25T18:20:39.601Z,98315.31
2022-08-25T18:23:09.723Z,98319.22
2022-08-25T18:25:36.876Z,98318.84
2022-08-25T18:28:08.917Z,98322.28
2022-08-25T18:30:36.100Z,98316.22
2022-08-25T18:33:03.059Z,98321.66
2022-08-25T18:35:29.769Z,98329.28
2022-08-25T18:38:16.533Z,98330.13
2022-08-25T18:40:44.568Z,98337.13
2022-08-25T18:43:13.083Z,98331.06
2022-08-25T18:45:44.094Z,98334.28
2022-08-25T18:48:26.629Z,98330.63
2022-08-25T18:50:57.272Z,98332.94
2022-08-25T18:53:36.899Z,98337.50
2022-08-25T18:56:16.113Z,98334.41
2022-08-25T18:58:42.669Z,98328.97
2022-08-25T19:01:13.585Z,98335.56
2022-08-25T19:03:42.528Z,98339.41
2022-08-25T19:06:09.137Z,98342.38
2022-08-25T19:08:36.495Z,98342.78
2022-08-25T19:11:03.259Z,98348.78
2022-08-25T19:13:29.922Z,98345.66
2022-08-25T19:15:56.786Z,98350.75
2022-08-25T19:18:26.137Z,98348.56
2022-08-25T19:20:56.384Z,98352.34
2022-08-25T19:23:22.953Z,98346.84
2022-08-25T19:25:49.487Z,98344.84
2022-08-25T19:28:16.770Z,98347.03
2022-08-25T19:30:46.467Z,98354.41
2022-08-25T19:33:42.002Z,98358.50
2022-08-25T19:36:11.234Z,98347.69
2022-08-25T19:38:39.389Z,98349.13
2022-08-25T19:41:13.900Z,98346.91
2022-08-25T19:43:55.713Z,98346.44
2022-08-25T19:46:32.790Z,98341.72
2022-08-25T19:49:06.849Z,98350.84
2022-08-25T19:51:44.614Z,98341.59
2022-08-25T19:54:13.887Z,98347.84
2022-08-25T19:56:43.918Z,98349.09
2022-08-25T19:59:40.698Z,98347.38
2022-08-25T20:02:17.826Z,98346.09
2022-08-25T20:04:49.890Z,98334.03
2022-08-25T20:07:25.073Z,98332.78
2022-08-25T20:09:54.063Z,98339.31
2022-08-25T20:12:22.145Z,98337.91
2022-08-25T20:14:50.468Z,98340.91
2022-08-25T20:17:24.742Z,98348.41
2022-08-25T20:19:55.919Z,98342.56
2022-08-25T20:22:31.984Z,98343.81
2022-08-25T20:25:02.514Z,98344.69
2022-08-25T20:27:37.775Z,98345.94
2022-08-25T20:30:13.497Z,98352.31
2022-08-25T20:32:40.545Z,98350.25
2022-08-25T20:35:13.245Z,98359.69
2022-08-25T20:37:41.760Z,98360.63
2022-08-25T20:40:09.533Z,98364.97
2022-08-25T20:42:37.183Z,98352.53
2022-08-25T20:45:05.323Z,98357.19
2022-08-25T20:47:32.088Z,98353.69
2022-08-25T20:50:04.534Z,98358.03
2022-08-25T20:52:34.307Z,98355.09
2022-08-25T20:55:05.943Z,98364.28
2022-08-25T20:57:34.098Z,98361.31
2022-08-25T21:00:08.884Z,98369.72
2022-08-25T21:02:36.233Z,98369.13
2022-08-25T21:05:04.731Z,98374.50
2022-08-25T21:07:31.779Z,98372.75
2022-08-25T21:10:02.533Z,98381.75
2022-08-25T21:12:31.438Z,98378.13
2022-08-25T21:14:58.635Z,98384.53
2022-08-25T21:17:25.136Z,98377.50
2022-08-25T21:19:51.824Z,98378.78
2022-08-25T21:22:18.708Z,98384.41
2022-08-25T21:24:45.860Z,98388.09
2022-08-25T21:27:12.481Z,98380.59
2022-08-25T21:29:39.240Z,98386.31
2022-08-25T21:32:19.476Z,98380.03
2022-08-25T21:34:46.206Z,98383.91
2022-08-25T21:37:14.323Z,98386.84
2022-08-25T21:39:41.035Z,98389.41
2022-08-25T21:42:08.067Z,98379.56
2022-08-25T21:44:35.426Z,98380.25
2022-08-25T21:47:02.828Z,98375.44
2022-08-25T21:49:29.496Z,98380.59
2022-08-25T21:52:04.554Z,98376.81
2022-08-25T21:54:34.122Z,98377.78
2022-08-25T21:57:25.844Z,98378.50
2022-08-25T21:59:52.430Z,98381.47
2022-08-25T22:02:27.815Z,98376.38
2022-08-25T22:04:54.575Z,98381.00
2022-08-25T22:07:24.524Z,98372.94
2022-08-25T22:09:51.531Z,98380.91
2022-08-25T22:12:19.237Z,98377.47
2022-08-25T22:14:46.123Z,98376.19
2022-08-25T22:17:16.572Z,98376.47
2022-08-25T22:19:43.781Z,98377.69
2022-08-25T22:22:10.270Z,98383.56
2022-08-25T22:24:37.877Z,98371.47
2022-08-25T22:27:04.925Z,98378.75
2022-08-25T22:29:43.637Z,98373.44
2022-08-25T22:32:10.672Z,98377.47
2022-08-25T22:34:40.776Z,98372.56
2022-08-25T22:37:12.997Z,98375.22
2022-08-25T22:39:45.322Z,98381.03
2022-08-25T22:42:12.492Z,98374.13
2022-08-25T22:44:39.891Z,98392.22
2022-08-25T22:47:07.108Z,98385.50
2022-08-25T22:49:35.403Z,98378.00
2022-08-25T22:52:02.410Z,98379.56
2022-08-25T22:54:29.877Z,98389.19
2022-08-25T22:56:56.576Z,98389.75
2022-08-25T22:59:23.146Z,98386.53
2022-08-25T23:01:49.980Z,98387.53
2022-08-25T23:04:17.607Z,98375.13
2022-08-25T23:06:46.117Z,98381.22
2022-08-25T23:09:13.927Z,98373.94
2022-08-25T23:11:40.842Z,98378.72
2022-08-25T23:14:11.070Z,98377.31
2022-08-25T23:16:42.959Z,98373.97
2022-08-25T23:19:13.897Z,98370.25
2022-08-25T23:21:59.212Z,98380.38
2022-08-25T23:24:29.610Z,98367.69
2022-08-25T23:27:00.692Z,98373.94
2022-08-25T23:29:28.547Z,98372.66
2022-08-25T23:31:55.391Z,98368.91
2022-08-25T23:34:23.252Z,98362.47
2022-08-25T23:36:50.519Z,98364.41
2022-08-25T23:39:17.067Z,98358.72
2022-08-25T23:41:43.577Z,98357.09
2022-08-25T23:44:11.873Z,98356.28
2022-08-25T23:46:47.841Z,98343.63
2022-08-25T23:49:18.113Z,98347.56
2022-08-25T23:51:45.680Z,98347.63
2022-08-25T23:54:12.395Z,98344.00
2022-08-25T23:56:44.783Z,98350.19
2022-08-25T23:59:18.986Z,98349.16
